Airfield :
LOGIN :

Register | Disclaimer

   EN    FR    IT 

 










Legend :    VFR   Marginal VFR   IFR   Intensive IFR   Very Intensive IFR
Visi :
Ceiling :
>= 8 km
>= 3000ft
5 to 8 km
1000 to 3000 ft
1500m to 5 km
500 to 1000 ft
800 to 1500m
200 to 500 ft
< 800m
< 200 ft
Symbols :   Thunderstorms  Fog  Heavy snow  Heavy precipitations  Wind > 20 kt
SIGMETs :     Misc.  Thunderstorms  Icing  Turbulence  Mountain Waves  Volcanic Ashes






- Airport Elevation : 51 ft
- IATA code : GWT


EDXW - Westerland-Sylt Island

CURRENT METAR :
  • 290620Z AUTO 19017KT 9999 // BKN010/// OVC017/// 15/14 Q1006

EXPIRED METARs :
  • 290550Z AUTO 19014KT 9999 // BKN010/// OVC014/// 15/14 Q1006
  • 290520Z AUTO 20017KT 9999 // FEW004/// OVC009/// 15/14 Q1007
  • 290450Z AUTO 16015KT 6000 // BKN004/// OVC008/// 14/14 Q1007
  • 290420Z AUTO 15016KT 2000 // BKN004/// OVC012/// 14/13 Q1007
  • 290350Z AUTO 15014KT 3800 // FEW004/// BKN006/// OVC015/// 14/13 Q1007
  • 290320Z AUTO 15015KT 9999 // BKN011/// OVC016/// 14/13 Q1008
  • 290250Z AUTO 15015KT 9999 // BKN014/// OVC016/// 14/12 Q1008
  • 290220Z AUTO 15013KT 9999 // BKN019/// OVC023/// 14/12 Q1009
  • 290150Z AUTO 15013KT 9999 // FEW020/// SCT064/// OVC110/// 14/11 Q1009

Expired Forecast.



MET'MAP, your aeronautical weather chart ! - Copyright ORBIFLY December 2007 - Disclaimer

ORBIFLY MET'MAP TEAM :

Programming & Development : Alexandra Zaïnal
Original concept : Baudouin d'Aumeries
Technical & hardware support : Manuel Goepfert
Assistance : Marc-Olivier Méhu




SOURCES & CREDITS :

   NOAA